Date,TemperatureHighF,TemperatureAvgF,TemperatureLowF,DewpointHighF,DewpointAvgF,DewpointLowF,HumidityHigh,HumidityAvg,HumidityLow,PressureMaxIn,PressureMinIn,WindSpeedMaxMPH,WindSpeedAvgMPH,GustSpeedMaxMPH,PrecipitationSumIn
2013-9-1,69,56,52,57,50,44,94,80,48,29.98,29.85,16,2,26,1.28
2013-9-2,91,62,50,52,49,43,91,67,21,29.96,29.82,22,4,26,0.03
2013-9-3,93,63,50,54,48,43,87,66,19,29.94,29.85,13,3,26,0.23
2013-9-4,82,62,48,53,47,41,90,61,30,30.02,29.93,15,3,26,0.00
2013-9-5,85,64,44,49,41,33,89,50,17,30.04,29.91,11,4,26,0.00
2013-9-6,91,66,47,54,39,34,70,41,17,29.95,29.76,15,5,26,0.03
2013-9-7,88,62,44,54,40,36,79,50,19,29.91,29.78,15,4,26,0.01
2013-9-8,83,68,52,44,39,32,64,38,17,29.86,29.60,12,6,26,0.00
2013-9-9,80,67,57,45,41,34,61,41,21,29.63,29.50,14,7,26,0.00
2013-9-10,71,57,44,52,46,41,93,69,38,29.93,29.62,13,4,26,0.10
2013-9-11,73,55,49,56,50,47,95,85,49,30.00,29.88,12,2,26,0.36
2013-9-12,65,54,49,55,51,47,96,89,64,30.04,29.95,9,1,26,0.56
2013-9-13,62,54,49,50,48,42,95,82,58,29.95,29.79,10,5,26,0.16
2013-9-14,75,56,45,48,44,40,85,68,33,29.85,29.70,12,5,26,0.00
2013-9-15,64,50,39,51,44,36,94,82,54,30.12,29.82,10,3,26,0.85
2013-9-16,78,57,44,50,45,39,96,72,26,30.12,29.90,13,3,26,0.06
2013-9-17,81,62,48,46,42,33,82,54,20,29.93,29.67,21,5,21,0.00
2013-9-18,74,60,48,46,42,32,81,53,27,29.74,29.57,26,6,26,0.01
2013-9-19,70,54,38,45,41,34,92,66,30,29.97,29.70,22,4,22,0.03
2013-9-20,78,56,41,46,42,35,90,66,25,29.99,29.83,15,3,15,0.00
2013-9-21,80,56,38,43,36,30,94,54,18,29.92,29.71,15,3,15,0.01
2013-9-22,66,53,40,49,41,34,90,65,36,29.71,29.39,27,7,27,0.18
2013-9-23,67,49,34,34,30,24,88,51,22,30.02,29.43,26,5,26,0.00
2013-9-24,82,51,26,31,22,3,84,43,6,30.14,29.86,19,4,19,0.00
2013-9-25,75,59,46,30,25,18,42,27,16,29.86,29.43,37,9,37,0.00
2013-9-26,68,58,41,27,20,14,42,24,14,29.53,29.39,33,8,33,0.00
2013-9-27,58,49,32,39,28,16,61,45,29,29.87,29.45,37,9,37,0.00
2013-9-28,75,44,20,20,15,8,75,38,9,30.20,29.87,17,4,17,0.00
2013-9-29,80,53,30,22,17,6,60,30,7,30.17,29.82,17,4,17,0.00
2013-9-30,84,58,36,32,25,16,55,32,13,29.86,29.67,14,4,14,0.00